Time;durP1;ratioP1;P1;durP2;ratioP2;P2;SDS_P1;SDS_P2;PMS_P1;PMS_P2;Temp;Humidity;BMP_temperature;BMP_pressure;BME280_temperature;BME280_humidity;BME280_pressure;Samples;Min_cycle;Max_cycle;Signal;HPM_P1;HPM_P2
2023/03/22 00:00:55;;;;;;;17.08;9.55;;;10.30;87.90;;;;;;5037221;28;20088;-75
2023/03/22 00:03:22;;;;;;;16.98;10.07;;;10.40;87.60;;;;;;5023299;28;20488;-75
2023/03/22 00:05:48;;;;;;;14.55;10.32;;;10.30;87.60;;;;;;5032452;28;20032;-76
2023/03/22 00:08:16;;;;;;;17.63;11.32;;;10.40;87.70;;;;;;5024287;28;20584;-76
2023/03/22 00:10:42;;;;;;;18.55;11.77;;;10.40;87.70;;;;;;5026401;28;20037;-79
2023/03/22 00:13:10;;;;;;;19.50;12.43;;;10.40;87.90;;;;;;5024379;28;20043;-79
2023/03/22 00:15:36;;;;;;;17.67;11.50;;;10.50;87.80;;;;;;5022405;28;20466;-75
2023/03/22 00:18:04;;;;;;;20.65;11.57;;;10.50;87.70;;;;;;5020752;28;20021;-81
2023/03/22 00:20:32;;;;;;;17.70;11.77;;;10.50;87.80;;;;;;5022811;28;20022;-77
2023/03/22 00:22:58;;;;;;;17.63;11.93;;;10.50;87.80;;;;;;5001908;28;20130;-78
2023/03/22 00:25:24;;;;;;;16.00;11.65;;;10.50;87.80;;;;;;5014596;28;20513;-80
2023/03/22 00:27:53;;;;;;;16.83;11.48;;;10.50;87.90;;;;;;5022126;28;20045;-76
2023/03/22 00:30:18;;;;;;;16.70;11.20;;;10.60;87.80;;;;;;5020430;28;20059;-72
2023/03/22 00:32:44;;;;;;;17.48;11.55;;;10.60;87.80;;;;;;5021987;28;20481;-82
2023/03/22 00:35:11;;;;;;;18.48;11.45;;;10.60;87.80;;;;;;5021857;28;20029;-73
2023/03/22 00:37:37;;;;;;;16.95;11.60;;;10.60;87.80;;;;;;5021225;28;20587;-78
2023/03/22 00:40:07;;;;;;;15.23;10.35;;;10.60;87.50;;;;;;5020830;28;20025;-77
2023/03/22 00:42:35;;;;;;;19.00;11.95;;;10.70;87.40;;;;;;5022574;28;20124;-74
2023/03/22 00:45:01;;;;;;;19.27;11.70;;;10.70;87.40;;;;;;5007358;28;20069;-75
2023/03/22 00:47:27;;;;;;;17.25;11.30;;;10.70;87.30;;;;;;5020020;28;20053;-78
2023/03/22 00:49:53;;;;;;;17.70;11.68;;;10.70;87.40;;;;;;5021105;28;20038;-80
2023/03/22 00:52:20;;;;;;;17.10;10.98;;;10.70;87.50;;;;;;5016820;28;20647;-75
2023/03/22 00:54:46;;;;;;;17.40;11.15;;;10.70;87.40;;;;;;4998794;28;20026;-76
2023/03/22 00:57:13;;;;;;;15.90;10.80;;;10.70;87.20;;;;;;5020460;28;20524;-75
2023/03/22 00:59:39;;;;;;;16.02;10.40;;;10.70;87.10;;;;;;5022495;28;20025;-75
2023/03/22 01:02:05;;;;;;;18.38;10.63;;;10.70;87.10;;;;;;5020161;28;20060;-74
2023/03/22 01:04:34;;;;;;;17.02;10.85;;;10.80;86.90;;;;;;5018927;28;20036;-74
2023/03/22 01:07:02;;;;;;;19.65;11.95;;;10.80;86.90;;;;;;5021600;28;20034;-77
2023/03/22 01:09:30;;;;;;;19.10;10.98;;;10.80;86.90;;;;;;5021493;28;20033;-75
2023/03/22 01:11:56;;;;;;;18.10;10.52;;;10.80;87.00;;;;;;5032250;28;20124;-77
2023/03/22 01:14:24;;;;;;;17.08;10.30;;;10.80;86.90;;;;;;5023092;28;20021;-79
2023/03/22 01:16:50;;;;;;;18.77;10.82;;;10.70;86.80;;;;;;5021319;28;20061;-81
2023/03/22 01:19:16;;;;;;;15.82;10.27;;;10.80;86.80;;;;;;5017857;28;20109;-85
2023/03/22 01:21:42;;;;;;;18.15;10.18;;;10.80;86.70;;;;;;5020836;28;20454;-75
2023/03/22 01:24:07;;;;;;;15.85;10.23;;;10.80;86.60;;;;;;5021233;28;20025;-82
2023/03/22 01:26:34;;;;;;;16.90;10.63;;;10.70;86.60;;;;;;5020233;28;20476;-73
2023/03/22 01:29:00;;;;;;;21.58;10.48;;;10.70;86.50;;;;;;5017714;28;20070;-80
2023/03/22 01:31:25;;;;;;;17.77;10.10;;;10.80;86.50;;;;;;5021526;28;20418;-77
2023/03/22 01:33:51;;;;;;;16.63;10.13;;;10.70;86.40;;;;;;4997438;28;20099;-74
2023/03/22 01:36:17;;;;;;;16.92;10.02;;;10.80;86.40;;;;;;5018127;28;20125;-75
2023/03/22 01:38:42;;;;;;;14.02;9.27;;;10.80;86.30;;;;;;5020069;28;20376;-76
2023/03/22 01:41:08;;;;;;;17.67;10.23;;;10.80;86.20;;;;;;5018462;28;20034;-75
2023/03/22 01:43:34;;;;;;;14.55;10.00;;;10.70;86.20;;;;;;5021839;28;20030;-76
2023/03/22 01:46:00;;;;;;;16.58;9.10;;;10.70;86.20;;;;;;5012449;28;20033;-79
2023/03/22 01:48:27;;;;;;;16.10;9.45;;;10.70;86.10;;;;;;5019389;28;20343;-81
2023/03/22 01:51:12;;;;;;;16.92;9.32;;;10.70;86.10;;;;;;5024359;28;20068;-76
2023/03/22 01:53:40;;;;;;;;;;;10.70;85.90;;;;;;5019872;28;20096;-76
2023/03/22 01:56:06;;;;;;;12.95;7.60;;;10.70;85.90;;;;;;5023950;28;20031;-76
2023/03/22 01:58:35;;;;;;;13.95;7.75;;;10.70;85.80;;;;;;5018919;28;20050;-75
2023/03/22 02:01:02;;;;;;;13.77;7.90;;;10.80;85.60;;;;;;5024176;28;20452;-77
2023/03/22 02:03:37;;;;;;;16.95;8.07;;;10.80;85.50;;;;;;5023508;28;20814;-77
2023/03/22 02:06:03;;;;;;;14.30;6.93;;;10.80;85.40;;;;;;5023536;28;20034;-76
2023/03/22 02:08:31;;;;;;;15.77;8.23;;;10.80;85.30;;;;;;5012628;28;20499;-79
2023/03/22 02:10:56;;;;;;;13.50;7.40;;;10.70;85.20;;;;;;5023352;28;20048;-76
2023/03/22 02:13:22;;;;;;;14.63;7.22;;;10.80;85.10;;;;;;5023247;28;20417;-78
2023/03/22 02:16:17;;;;;;;14.63;7.43;;;10.80;84.90;;;;;;5023356;28;20025;-77
2023/03/22 02:19:07;;;;;;;15.73;7.63;;;10.80;84.70;;;;;;5023075;28;20040;-75
2023/03/22 02:21:52;;;;;;;13.25;6.82;;;10.70;84.80;;;;;;5021713;28;20048;-77
2023/03/22 02:24:33;;;;;;;13.68;6.72;;;10.80;84.60;;;;;;5021635;28;20033;-75
2023/03/22 02:27:22;;;;;;;14.52;6.85;;;10.80;84.60;;;;;;5024269;28;20076;-79
2023/03/22 02:30:16;;;;;;;13.55;6.07;;;10.70;84.50;;;;;;5021971;28;20033;-76
2023/03/22 02:33:12;;;;;;;15.55;5.90;;;10.70;84.60;;;;;;5019494;28;20099;-78
2023/03/22 02:36:12;;;;;;;11.50;5.78;;;10.70;84.50;;;;;;5021812;28;20579;-74
2023/03/22 02:39:20;;;;;;;12.98;5.22;;;10.60;84.40;;;;;;5023574;28;20017;-74
2023/03/22 02:42:20;;;;;;;17.38;6.22;;;10.60;84.40;;;;;;5021177;28;20037;-74
2023/03/22 02:44:59;;;;;;;10.98;5.15;;;10.60;84.40;;;;;;5020274;28;20033;-82
2023/03/22 02:47:38;;;;;;;15.40;5.90;;;10.50;84.30;;;;;;5022396;28;20104;-80
2023/03/22 02:50:29;;;;;;;18.55;5.40;;;10.50;84.30;;;;;;5017296;28;20044;-75
2023/03/22 02:53:17;;;;;;;16.38;5.20;;;10.50;84.40;;;;;;5022761;28;20057;-77
2023/03/22 02:55:54;;;;;;;17.00;5.88;;;10.50;84.50;;;;;;5017516;28;20435;-78
2023/03/22 02:58:25;;;;;;;17.08;4.95;;;10.50;84.30;;;;;;5031480;28;20032;-78
2023/03/22 03:00:56;;;;;;;14.18;5.07;;;10.50;84.30;;;;;;5016993;28;20091;-74
2023/03/22 03:03:28;;;;;;;10.45;4.50;;;10.40;84.30;;;;;;5018686;28;20028;-73
2023/03/22 03:05:58;;;;;;;13.50;4.82;;;10.40;84.30;;;;;;5020558;28;20146;-78
2023/03/22 03:08:25;;;;;;;12.57;4.35;;;10.40;84.30;;;;;;5021469;28;20821;-81
2023/03/22 03:10:52;;;;;;;13.40;4.45;;;10.40;84.30;;;;;;5017486;28;20047;-77
2023/03/22 03:13:18;;;;;;;15.18;4.18;;;10.40;84.30;;;;;;5022328;28;20021;-77
2023/03/22 03:15:51;;;;;;;12.77;4.22;;;10.40;84.30;;;;;;4998394;28;20025;-78
2023/03/22 03:18:35;;;;;;;15.65;4.95;;;10.40;84.40;;;;;;5004923;28;20167;-78
2023/03/22 03:21:38;;;;;;;12.20;3.92;;;10.40;84.30;;;;;;5013599;28;20124;-80
2023/03/22 03:24:15;;;;;;;16.55;4.90;;;10.40;84.30;;;;;;5018453;28;20512;-75
2023/03/22 03:26:44;;;;;;;12.10;4.32;;;10.40;84.30;;;;;;5021131;28;20037;-83
2023/03/22 03:29:28;;;;;;;15.48;4.15;;;10.40;84.20;;;;;;5020345;28;20117;-79
2023/03/22 03:32:08;;;;;;;14.43;3.95;;;10.40;84.00;;;;;;5021962;28;20136;-77
2023/03/22 03:34:50;;;;;;;16.75;5.03;;;10.40;84.00;;;;;;5022812;28;20021;-74
2023/03/22 03:37:38;;;;;;;12.45;3.90;;;10.40;83.90;;;;;;5017660;28;20100;-76
2023/03/22 03:40:29;;;;;;;13.30;4.38;;;10.40;83.80;;;;;;5036464;28;20414;-76
2023/03/22 03:42:57;;;;;;;11.35;3.55;;;10.40;83.80;;;;;;5021192;28;20118;-77
2023/03/22 03:45:24;;;;;;;15.02;4.47;;;10.30;83.90;;;;;;5018638;28;20048;-74
2023/03/22 03:47:56;;;;;;;16.25;4.10;;;10.30;83.80;;;;;;5005113;28;20042;-79
2023/03/22 03:50:24;;;;;;;13.32;4.55;;;10.30;83.80;;;;;;5024765;28;20080;-76
2023/03/22 03:52:53;;;;;;;11.60;3.40;;;10.30;83.80;;;;;;5010289;28;20378;-75
2023/03/22 03:55:19;;;;;;;14.18;3.70;;;10.30;83.80;;;;;;5021550;28;20897;-73
2023/03/22 03:57:45;;;;;;;13.02;3.90;;;10.30;83.80;;;;;;5007987;28;20120;-78
2023/03/22 04:00:13;;;;;;;15.07;3.65;;;10.30;83.80;;;;;;5021497;28;20108;-74
2023/03/22 04:02:42;;;;;;;15.27;3.35;;;10.30;83.80;;;;;;5018577;28;20041;-74
2023/03/22 04:05:09;;;;;;;12.05;3.97;;;10.30;83.70;;;;;;5021263;28;20456;-80
2023/03/22 04:07:36;;;;;;;13.38;3.35;;;10.30;83.70;;;;;;5022737;28;20117;-77
2023/03/22 04:10:02;;;;;;;15.35;3.55;;;10.30;83.60;;;;;;5025321;28;20102;-74
2023/03/22 04:12:28;;;;;;;13.50;3.70;;;10.30;83.60;;;;;;5022426;28;20045;-74
2023/03/22 04:14:54;;;;;;;12.52;3.40;;;10.20;83.60;;;;;;5022475;28;20095;-75
2023/03/22 04:17:21;;;;;;;14.55;3.67;;;10.20;83.60;;;;;;5021068;28;20048;-82
2023/03/22 04:19:46;;;;;;;12.25;3.83;;;10.20;83.70;;;;;;5034077;28;20025;-74
2023/03/22 04:22:13;;;;;;;11.88;3.50;;;10.20;83.80;;;;;;5021324;28;20064;-75
2023/03/22 04:24:40;;;;;;;13.60;3.38;;;10.20;83.70;;;;;;5023186;28;20075;-80
2023/03/22 04:27:07;;;;;;;13.35;3.10;;;10.30;83.60;;;;;;5035693;28;20513;-74
2023/03/22 04:29:35;;;;;;;15.55;3.42;;;10.20;83.50;;;;;;5013401;28;20062;-73
2023/03/22 04:32:01;;;;;;;16.13;3.92;;;10.30;83.50;;;;;;5022007;28;20060;-82
2023/03/22 04:34:27;;;;;;;14.60;3.38;;;10.30;83.30;;;;;;5019968;28;20420;-76
2023/03/22 04:36:53;;;;;;;16.33;3.40;;;10.30;83.30;;;;;;5015647;28;20048;-79
2023/03/22 04:39:19;;;;;;;13.75;3.17;;;10.30;83.30;;;;;;5036078;28;20448;-76
2023/03/22 04:41:45;;;;;;;11.98;3.05;;;10.30;83.30;;;;;;5007737;28;20033;-78
2023/03/22 04:44:11;;;;;;;12.80;3.05;;;10.30;83.10;;;;;;5020902;28;20465;-77
2023/03/22 04:46:37;;;;;;;18.33;3.50;;;10.30;83.10;;;;;;5024227;28;20104;-74
2023/03/22 04:49:04;;;;;;;13.75;2.95;;;10.30;83.00;;;;;;5002006;28;20033;-78
2023/03/22 04:51:30;;;;;;;10.98;2.88;;;10.30;82.90;;;;;;5021457;28;20486;-80
2023/03/22 04:53:57;;;;;;;13.15;3.28;;;10.30;82.80;;;;;;5028570;28;20021;-78
2023/03/22 04:56:23;;;;;;;13.15;3.13;;;10.30;82.70;;;;;;5017137;28;20041;-80
2023/03/22 04:58:48;;;;;;;18.02;3.40;;;10.30;82.70;;;;;;5018419;28;20287;-80
2023/03/22 05:01:16;;;;;;;13.40;2.67;;;10.30;82.70;;;;;;5016658;28;20053;-73
2023/03/22 05:03:44;;;;;;;12.18;2.97;;;10.30;82.60;;;;;;5021396;28;20040;-77
2023/03/22 05:06:10;;;;;;;15.77;4.50;;;10.20;82.70;;;;;;5022448;28;20041;-79
2023/03/22 05:08:36;;;;;;;14.85;3.22;;;10.20;82.80;;;;;;5020526;28;20036;-79
2023/03/22 05:11:08;;;;;;;17.73;4.32;;;10.30;82.90;;;;;;5020987;28;20049;-75
2023/03/22 05:13:36;;;;;;;15.68;3.05;;;10.20;82.80;;;;;;5023768;28;20053;-79
2023/03/22 05:16:02;;;;;;;11.65;2.50;;;10.20;82.80;;;;;;5020317;28;20040;-72
2023/03/22 05:18:28;;;;;;;12.63;2.88;;;10.20;83.00;;;;;;5001819;28;20025;-77
2023/03/22 05:20:55;;;;;;;12.73;2.95;;;10.10;82.90;;;;;;5020626;28;20043;-79
2023/03/22 05:23:22;;;;;;;15.70;3.33;;;10.10;83.10;;;;;;5013397;28;20072;-74
2023/03/22 05:25:50;;;;;;;11.60;2.80;;;10.10;83.10;;;;;;5019744;28;20087;-76
2023/03/22 05:28:18;;;;;;;19.02;3.47;;;10.10;83.10;;;;;;5026090;28;20026;-82
2023/03/22 05:30:44;;;;;;;12.13;2.97;;;10.10;83.10;;;;;;5021434;28;20329;-75
2023/03/22 05:33:10;;;;;;;12.93;4.13;;;10.10;83.10;;;;;;5016101;28;20025;-74
2023/03/22 05:35:38;;;;;;;13.43;2.97;;;10.10;83.30;;;;;;5023363;28;20040;-78
2023/03/22 05:38:05;;;;;;;18.35;4.03;;;10.10;83.20;;;;;;5024575;28;20037;-73
2023/03/22 05:40:31;;;;;;;12.60;3.20;;;10.00;83.30;;;;;;5015372;28;20034;-75
2023/03/22 05:42:57;;;;;;;14.68;3.38;;;10.10;83.50;;;;;;5016034;28;20053;-76
2023/03/22 05:45:23;;;;;;;15.77;3.45;;;10.00;83.40;;;;;;5012727;28;20022;-77
2023/03/22 05:47:49;;;;;;;12.25;2.83;;;10.10;83.50;;;;;;4997544;28;20070;-77
2023/03/22 05:50:18;;;;;;;10.98;2.85;;;10.00;83.50;;;;;;4996225;28;20064;-74
2023/03/22 05:52:44;;;;;;;13.57;3.33;;;10.10;83.50;;;;;;5021738;28;20125;-80
2023/03/22 05:55:12;;;;;;;13.13;3.90;;;10.00;83.50;;;;;;5022689;28;20048;-74
2023/03/22 05:57:39;;;;;;;12.02;3.22;;;10.10;83.50;;;;;;4995320;28;20074;-76
2023/03/22 06:00:12;;;;;;;11.88;3.30;;;10.10;83.60;;;;;;4998794;28;20413;-77
2023/03/22 06:02:45;;;;;;;10.80;2.80;;;10.00;83.60;;;;;;4994100;28;20374;-73
2023/03/22 06:05:13;;;;;;;13.55;3.38;;;10.10;83.60;;;;;;5000043;28;20026;-73
2023/03/22 06:07:40;;;;;;;13.90;2.97;;;10.10;83.60;;;;;;5006273;28;20040;-75
2023/03/22 06:10:07;;;;;;;16.20;3.53;;;10.00;83.60;;;;;;5009225;28;20034;-73
2023/03/22 06:12:33;;;;;;;13.45;3.15;;;10.00;83.70;;;;;;5006259;28;20029;-76
2023/03/22 06:14:59;;;;;;;13.38;3.38;;;10.10;83.60;;;;;;5007540;28;20037;-82
2023/03/22 06:17:25;;;;;;;14.07;3.38;;;10.10;83.50;;;;;;4998275;28;20644;-74
2023/03/22 06:19:51;;;;;;;11.02;3.15;;;10.10;83.50;;;;;;5004571;28;20026;-78
2023/03/22 06:22:17;;;;;;;11.85;3.35;;;10.10;83.60;;;;;;4999375;28;20034;-74
2023/03/22 06:24:43;;;;;;;12.27;3.10;;;10.10;83.60;;;;;;5004624;28;20532;-77
2023/03/22 06:27:09;;;;;;;13.90;3.28;;;10.10;83.40;;;;;;5005269;28;20038;-77
2023/03/22 06:29:35;;;;;;;12.25;3.17;;;10.10;83.50;;;;;;5007199;28;20026;-73
2023/03/22 06:32:01;;;;;;;13.23;4.03;;;10.20;83.30;;;;;;5013222;28;20080;-74
2023/03/22 06:34:27;;;;;;;16.58;3.40;;;10.30;83.00;;;;;;4996391;28;20037;-73
2023/03/22 06:36:53;;;;;;;12.88;4.05;;;10.30;83.00;;;;;;4998006;28;20048;-77
2023/03/22 06:39:19;;;;;;;14.00;3.30;;;10.40;82.90;;;;;;5008529;28;20021;-77
2023/03/22 06:41:45;;;;;;;13.57;3.83;;;10.40;83.00;;;;;;5010744;28;20110;-81
2023/03/22 06:44:11;;;;;;;17.20;3.67;;;10.30;83.10;;;;;;5004374;28;20135;-78
2023/03/22 06:46:37;;;;;;;13.90;3.53;;;10.40;82.80;;;;;;5013855;28;20125;-81
2023/03/22 06:49:03;;;;;;;18.60;3.85;;;10.50;82.70;;;;;;5022717;28;20049;-76
2023/03/22 06:51:30;;;;;;;13.40;3.78;;;10.50;82.60;;;;;;4999505;28;20054;-73
2023/03/22 06:53:56;;;;;;;15.52;3.33;;;10.50;82.50;;;;;;5021845;28;20084;-78
2023/03/22 06:56:22;;;;;;;14.38;3.05;;;10.50;82.50;;;;;;5022117;28;20041;-74
2023/03/22 06:58:48;;;;;;;9.65;3.00;;;10.60;82.50;;;;;;5029701;28;20036;-82
2023/03/22 07:01:13;;;;;;;11.23;3.30;;;10.60;82.30;;;;;;5029279;28;20048;-74
2023/03/22 07:03:39;;;;;;;14.68;3.63;;;10.60;82.30;;;;;;5005916;28;20064;-74
2023/03/22 07:06:07;;;;;;;13.93;3.75;;;10.60;82.30;;;;;;5024345;28;20064;-79
2023/03/22 07:08:35;;;;;;;17.63;3.42;;;10.60;82.30;;;;;;5025211;28;20029;-77
2023/03/22 07:11:01;;;;;;;11.65;3.40;;;10.60;82.20;;;;;;5027523;28;20529;-76
2023/03/22 07:13:27;;;;;;;13.85;3.13;;;10.60;82.20;;;;;;5032146;28;20017;-77
2023/03/22 07:16:00;;;;;;;12.50;3.97;;;10.60;82.30;;;;;;5022635;28;20440;-75
2023/03/22 07:18:28;;;;;;;11.38;3.47;;;10.60;82.60;;;;;;5029474;28;20035;-74
2023/03/22 07:20:53;;;;;;;15.85;3.63;;;10.70;82.10;;;;;;5000705;28;20061;-74
2023/03/22 07:23:19;;;;;;;14.25;3.38;;;10.70;82.00;;;;;;5034321;28;20448;-75
2023/03/22 07:25:46;;;;;;;19.95;3.60;;;10.70;82.10;;;;;;5025773;28;20021;-73
2023/03/22 07:28:12;;;;;;;12.63;3.40;;;10.70;82.00;;;;;;5028655;28;20049;-77
2023/03/22 07:30:38;;;;;;;15.07;4.38;;;10.70;81.90;;;;;;5004361;28;20036;-73
2023/03/22 07:33:05;;;;;;;15.32;3.30;;;10.70;81.90;;;;;;5025468;28;20167;-73
2023/03/22 07:35:31;;;;;;;13.50;3.33;;;10.80;81.90;;;;;;5020650;28;20021;-74
2023/03/22 07:37:57;;;;;;;16.27;4.15;;;10.80;82.00;;;;;;5018331;28;20037;-73
2023/03/22 07:40:23;;;;;;;11.95;3.53;;;10.80;82.10;;;;;;5022672;28;20021;-74
2023/03/22 07:42:49;;;;;;;12.85;3.50;;;10.80;82.40;;;;;;5004924;28;20040;-73
2023/03/22 07:45:16;;;;;;;14.30;4.18;;;10.80;82.60;;;;;;5016122;28;20457;-73
2023/03/22 07:47:42;;;;;;;12.73;4.18;;;10.90;82.50;;;;;;5025320;28;20041;-74
2023/03/22 07:50:12;;;;;;;13.32;3.45;;;11.00;82.50;;;;;;5012520;28;20477;-72
2023/03/22 07:52:39;;;;;;;10.88;3.33;;;11.10;82.30;;;;;;5022940;28;20344;-72
2023/03/22 07:55:05;;;;;;;11.23;3.53;;;11.00;82.10;;;;;;5024148;28;20465;-74
2023/03/22 07:57:31;;;;;;;12.18;3.13;;;11.00;82.00;;;;;;5020948;28;20041;-74
2023/03/22 07:59:57;;;;;;;15.15;3.50;;;11.00;82.00;;;;;;5021944;28;20034;-76
2023/03/22 08:02:23;;;;;;;14.40;4.32;;;11.10;82.20;;;;;;5019630;28;20396;-75
2023/03/22 08:04:49;;;;;;;14.02;3.60;;;11.00;82.20;;;;;;5020045;28;20081;-74
2023/03/22 08:07:17;;;;;;;14.60;3.75;;;11.10;82.30;;;;;;5014054;28;20037;-74
2023/03/22 08:09:44;;;;;;;14.77;3.55;;;11.10;82.50;;;;;;5019889;28;20140;-73
2023/03/22 08:12:10;;;;;;;12.02;3.60;;;11.10;82.10;;;;;;5003205;28;20428;-73
2023/03/22 08:14:36;;;;;;;13.32;3.42;;;11.10;82.30;;;;;;4999116;28;20026;-73
2023/03/22 08:17:05;;;;;;;13.15;3.80;;;11.30;82.20;;;;;;5019132;28;20041;-73
2023/03/22 08:19:32;;;;;;;13.25;3.60;;;11.40;82.50;;;;;;5024639;28;20576;-73
2023/03/22 08:21:58;;;;;;;12.43;3.67;;;11.50;82.40;;;;;;5020887;28;20052;-73
2023/03/22 08:24:25;;;;;;;13.57;3.20;;;11.60;82.40;;;;;;5024159;28;20025;-74
2023/03/22 08:26:51;;;;;;;10.32;2.85;;;11.60;82.40;;;;;;5021406;28;20038;-73
2023/03/22 08:29:17;;;;;;;14.88;4.03;;;11.60;82.10;;;;;;5018235;28;20386;-73
2023/03/22 08:31:43;;;;;;;19.30;4.10;;;11.70;82.10;;;;;;5028325;28;20089;-75
2023/03/22 08:34:09;;;;;;;15.55;3.15;;;11.70;82.20;;;;;;5027655;28;20025;-73
2023/03/22 08:36:36;;;;;;;10.55;3.15;;;11.80;82.10;;;;;;5019271;28;20786;-76
2023/03/22 08:39:03;;;;;;;10.18;2.97;;;11.90;81.90;;;;;;5021198;28;20029;-72
2023/03/22 08:41:28;;;;;;;11.13;3.08;;;11.90;82.00;;;;;;5023368;28;20342;-73
2023/03/22 08:43:55;;;;;;;12.57;3.00;;;11.90;81.70;;;;;;5024357;28;20543;-75
2023/03/22 08:46:20;;;;;;;13.65;3.47;;;11.90;81.90;;;;;;5022090;28;20114;-75
2023/03/22 08:48:49;;;;;;;10.00;2.65;;;12.00;81.90;;;;;;4998204;28;20026;-75
2023/03/22 08:51:20;;;;;;;11.63;3.03;;;12.10;81.80;;;;;;5023105;28;20041;-76
2023/03/22 08:53:47;;;;;;;11.13;3.22;;;12.10;82.10;;;;;;5018679;28;20060;-78
2023/03/22 08:56:16;;;;;;;14.50;3.55;;;12.10;82.50;;;;;;5013157;28;20033;-77
2023/03/22 08:58:45;;;;;;;16.67;3.20;;;12.00;82.50;;;;;;5019703;28;20091;-75
2023/03/22 09:01:16;;;;;;;13.02;3.47;;;12.00;82.70;;;;;;5005526;28;20555;-76
2023/03/22 09:03:42;;;;;;;11.65;3.10;;;11.80;83.10;;;;;;5023644;28;20017;-73
2023/03/22 09:06:12;;;;;;;13.30;3.85;;;11.80;83.20;;;;;;5012636;28;20037;-73
2023/03/22 09:08:37;;;;;;;13.55;3.50;;;11.80;83.60;;;;;;4998056;28;20033;-75
2023/03/22 09:11:03;;;;;;;16.52;3.90;;;11.70;83.80;;;;;;5007438;28;20045;-73
2023/03/22 09:13:29;;;;;;;12.05;3.47;;;11.80;83.90;;;;;;5025737;28;20493;-73
2023/03/22 09:15:56;;;;;;;13.75;3.95;;;11.80;84.10;;;;;;5017525;28;20065;-76
2023/03/22 09:18:23;;;;;;;14.20;4.05;;;11.70;84.50;;;;;;5013830;28;20025;-74
2023/03/22 09:20:49;;;;;;;13.98;3.53;;;11.70;84.60;;;;;;5011423;28;20528;-75
2023/03/22 09:23:15;;;;;;;9.95;3.28;;;11.60;84.90;;;;;;5010996;28;20022;-73
2023/03/22 09:25:45;;;;;;;10.95;3.10;;;11.60;85.30;;;;;;5023582;28;20377;-74
2023/03/22 09:28:12;;;;;;;12.38;3.60;;;11.40;85.80;;;;;;5008503;28;20021;-76
2023/03/22 09:30:38;;;;;;;10.77;3.88;;;11.40;86.20;;;;;;5013812;28;20271;-71
2023/03/22 09:33:05;;;;;;;17.00;3.55;;;11.40;86.20;;;;;;5012084;28;20029;-74
2023/03/22 09:35:31;;;;;;;10.70;3.30;;;11.40;86.50;;;;;;5017709;28;20021;-75
2023/03/22 09:37:58;;;;;;;15.48;4.20;;;11.50;86.60;;;;;;5010915;28;20041;-72
2023/03/22 09:40:28;;;;;;;10.52;3.70;;;11.50;86.60;;;;;;5023083;28;20591;-76
2023/03/22 09:42:57;;;;;;;15.55;4.10;;;11.50;86.50;;;;;;5016288;28;20125;-74
2023/03/22 09:45:36;;;;;;;15.68;3.88;;;11.40;86.50;;;;;;5019006;28;20033;-74
2023/03/22 09:48:13;;;;;;;13.00;3.60;;;11.40;86.70;;;;;;5011266;28;20048;-79
2023/03/22 09:50:50;;;;;;;12.05;3.58;;;11.30;86.80;;;;;;5006450;28;20580;-74
2023/03/22 09:53:17;;;;;;;14.30;3.67;;;11.40;87.00;;;;;;5003754;28;20040;-73
2023/03/22 09:56:18;;;;;;;18.30;3.60;;;11.40;87.00;;;;;;5006189;28;20030;-76
2023/03/22 09:59:15;;;;;;;10.98;3.22;;;11.40;87.10;;;;;;5010718;28;20096;-75
2023/03/22 10:01:59;;;;;;;12.65;3.67;;;11.50;86.90;;;;;;4999913;28;20048;-76
2023/03/22 10:04:59;;;;;;;16.92;3.67;;;11.50;86.80;;;;;;4998195;28;20022;-75
2023/03/22 10:07:37;;;;;;;12.85;3.15;;;11.50;87.00;;;;;;5012396;28;20373;-75
2023/03/22 10:10:16;;;;;;;10.43;3.80;;;11.50;86.90;;;;;;4991421;28;20033;-72
2023/03/22 10:13:09;;;;;;;10.95;3.40;;;11.60;87.00;;;;;;5003421;28;20041;-72
2023/03/22 10:15:58;;;;;;;10.60;4.05;;;11.50;86.70;;;;;;4998454;28;20116;-75
2023/03/22 10:18:28;;;;;;;11.68;3.45;;;11.60;86.90;;;;;;5003590;28;20095;-75
2023/03/22 10:20:57;;;;;;;11.13;3.92;;;11.70;86.90;;;;;;5005144;28;20494;-75
2023/03/22 10:23:43;;;;;;;12.13;3.58;;;11.80;86.90;;;;;;5012284;28;20326;-73
2023/03/22 10:26:17;;;;;;;11.27;3.55;;;11.80;86.60;;;;;;5003596;28;20105;-74
2023/03/22 10:28:55;;;;;;;12.63;3.17;;;11.80;86.90;;;;;;5008432;28;20146;-74
2023/03/22 10:31:22;;;;;;;13.02;3.78;;;11.80;86.20;;;;;;5004156;28;20042;-74
2023/03/22 10:33:54;;;;;;;13.02;4.00;;;12.00;86.30;;;;;;5001709;28;20423;-74
2023/03/22 10:36:25;;;;;;;13.32;3.72;;;12.10;85.90;;;;;;5005695;28;20046;-74
2023/03/22 10:38:59;;;;;;;11.48;3.45;;;12.10;85.90;;;;;;5013624;28;20033;-73
2023/03/22 10:41:26;;;;;;;;;;;12.20;85.50;;;;;;5010594;28;20049;-74
2023/03/22 10:43:56;;;;;;;11.30;3.80;;;12.20;85.40;;;;;;5002081;28;20390;-72
2023/03/22 10:46:25;;;;;;;10.98;3.75;;;12.20;85.10;;;;;;5009607;28;20048;-72
2023/03/22 10:48:56;;;;;;;13.57;4.50;;;12.40;85.10;;;;;;5026008;28;20510;-72
2023/03/22 10:51:45;;;;;;;10.45;4.80;;;12.40;84.70;;;;;;5025532;28;20126;-72
2023/03/22 10:54:13;;;;;;;12.80;5.28;;;12.40;84.60;;;;;;5022583;28;20037;-73
2023/03/22 10:56:39;;;;;;;12.20;5.00;;;12.50;84.60;;;;;;5020900;28;20454;-75
2023/03/22 10:59:04;;;;;;;13.27;4.72;;;12.50;84.70;;;;;;5023073;28;20099;-74
2023/03/22 11:01:35;;;;;;;9.70;3.50;;;12.60;84.70;;;;;;5020557;28;20080;-75
2023/03/22 11:04:14;;;;;;;11.50;4.05;;;12.60;84.10;;;;;;5034056;28;20312;-76
2023/03/22 11:06:49;;;;;;;12.85;4.20;;;12.70;84.30;;;;;;5020578;28;20413;-74
2023/03/22 11:09:19;;;;;;;15.50;4.22;;;12.60;84.10;;;;;;5021377;28;20029;-72
2023/03/22 11:11:59;;;;;;;9.50;4.03;;;12.60;83.90;;;;;;5021599;28;20060;-73
2023/03/22 11:14:41;;;;;;;12.07;3.90;;;12.50;84.30;;;;;;5019454;28;20033;-72
2023/03/22 11:17:08;;;;;;;11.82;4.30;;;12.60;83.90;;;;;;5019941;28;20049;-73
2023/03/22 11:19:36;;;;;;;10.75;4.53;;;12.60;84.00;;;;;;5003437;28;20461;-76
2023/03/22 11:22:05;;;;;;;14.00;4.82;;;12.60;84.00;;;;;;5006872;28;20042;-73
2023/03/22 11:24:32;;;;;;;14.65;4.82;;;12.60;83.80;;;;;;5010121;28;20053;-74
2023/03/22 11:27:07;;;;;;;12.70;4.90;;;12.60;83.80;;;;;;5008199;28;20039;-76
2023/03/22 11:29:45;;;;;;;12.35;5.32;;;12.60;83.60;;;;;;5009448;28;20465;-75
2023/03/22 11:32:24;;;;;;;14.35;5.25;;;12.60;83.80;;;;;;5010886;28;20140;-76
2023/03/22 11:35:04;;;;;;;12.77;6.53;;;12.60;83.70;;;;;;5007108;28;20079;-75
2023/03/22 11:37:29;;;;;;;16.13;6.13;;;12.50;84.00;;;;;;4990513;28;20503;-75
2023/03/22 11:40:03;;;;;;;16.92;7.53;;;12.60;83.90;;;;;;5024680;28;20025;-72
2023/03/22 11:42:32;;;;;;;14.95;6.63;;;12.50;83.90;;;;;;5009810;28;20052;-74
2023/03/22 11:44:58;;;;;;;12.88;5.90;;;12.50;84.00;;;;;;5010308;28;20056;-75
2023/03/22 11:47:26;;;;;;;12.15;5.07;;;12.50;84.10;;;;;;4991968;28;20789;-77
2023/03/22 11:49:55;;;;;;;13.15;6.28;;;12.50;83.90;;;;;;5010602;28;20079;-73
2023/03/22 11:52:26;;;;;;;12.70;4.68;;;12.40;83.90;;;;;;5009043;28;20048;-74
2023/03/22 11:54:53;;;;;;;14.68;5.35;;;12.60;83.80;;;;;;5014153;28;20040;-76
2023/03/22 11:57:26;;;;;;;10.60;5.35;;;12.60;83.70;;;;;;5010483;28;20443;-74
2023/03/22 12:00:10;;;;;;;12.90;6.53;;;12.60;83.80;;;;;;5012373;28;20111;-76
2023/03/22 12:02:44;;;;;;;11.32;6.10;;;12.70;84.00;;;;;;5026321;28;20096;-76
2023/03/22 12:05:19;;;;;;;13.20;6.22;;;12.70;83.80;;;;;;5013915;28;20026;-72
2023/03/22 12:07:47;;;;;;;11.98;6.45;;;12.70;83.90;;;;;;5030327;28;20235;-74
2023/03/22 12:10:20;;;;;;;18.27;9.15;;;12.80;84.00;;;;;;5021539;28;20040;-73
2023/03/22 12:13:13;;;;;;;10.18;5.68;;;12.80;83.60;;;;;;5032704;28;20069;-75
2023/03/22 12:15:47;;;;;;;13.65;6.13;;;12.90;83.40;;;;;;5015907;28;20429;-75
2023/03/22 12:18:26;;;;;;;14.98;6.90;;;12.80;83.30;;;;;;5023672;28;20101;-74
2023/03/22 12:20:57;;;;;;;14.63;5.80;;;12.80;83.30;;;;;;5026157;28;20568;-73
2023/03/22 12:23:29;;;;;;;14.48;6.20;;;12.90;83.20;;;;;;5029972;28;20042;-74
2023/03/22 12:26:14;;;;;;;13.80;6.47;;;13.00;83.00;;;;;;5017955;28;20041;-76
2023/03/22 12:29:12;;;;;;;17.05;6.35;;;13.10;82.90;;;;;;5024395;28;20024;-74
2023/03/22 12:31:43;;;;;;;11.27;5.95;;;13.10;82.50;;;;;;5018459;28;20041;-76
2023/03/22 12:34:18;;;;;;;13.07;6.20;;;13.10;82.50;;;;;;5020002;28;20029;-72
2023/03/22 12:36:54;;;;;;;15.68;6.75;;;13.10;82.30;;;;;;5022429;28;20030;-72
2023/03/22 12:39:33;;;;;;;11.52;6.13;;;13.20;82.20;;;;;;5027467;28;20018;-73
2023/03/22 12:42:05;;;;;;;14.27;6.55;;;13.20;82.10;;;;;;5022771;28;20168;-75
2023/03/22 12:44:42;;;;;;;11.88;6.53;;;13.10;82.10;;;;;;5008200;28;20239;-73
2023/03/22 12:47:40;;;;;;;13.50;6.68;;;13.10;82.20;;;;;;5017963;28;20057;-73
2023/03/22 12:50:20;;;;;;;14.43;6.75;;;13.10;82.30;;;;;;5012922;28;20046;-74
2023/03/22 12:52:49;;;;;;;13.65;6.20;;;13.20;82.00;;;;;;5002668;28;20064;-73